Time;durP1;ratioP1;P1;durP2;ratioP2;P2;SDS_P1;SDS_P2;PMS_P1;PMS_P2;Temp;Humidity;BMP_temperature;BMP_pressure;BME280_temperature;BME280_humidity;BME280_pressure;Samples;Min_cycle;Max_cycle;Signal;HPM_P1;HPM_P2
2020/12/31 00:00:56;;;;;;;;;;;;;;;;;;5014561;28;988;-70
2020/12/31 00:03:21;;;;;;;;;;;;;;;;;;5014894;28;856;-72
2020/12/31 00:05:47;;;;;;;;;;;;;;;;;;5014678;28;1310;-72
2020/12/31 00:08:12;;;;;;;;;;;;;;;;;;5014581;28;1894;-73
2020/12/31 00:10:37;;;;;;;;;;;;;;;;;;5014652;28;1110;-72
2020/12/31 00:13:02;;;;;;;;;;;;;;;;;;5013628;28;1540;-74
2020/12/31 00:15:28;;;;;;;;;;;;;;;;;;5013355;28;1369;-74
2020/12/31 00:17:53;;;;;;;;;;;;;;;;;;5014561;28;980;-74
2020/12/31 00:20:18;;;;;;;;;;;;;;;;;;5014546;28;805;-72
2020/12/31 00:22:44;;;;;;;;;;;;;;;;;;5016835;28;1744;-72
2020/12/31 00:25:09;;;;;;;;;;;;;;;;;;5017284;28;1361;-73
2020/12/31 00:27:35;;;;;;;;;;;;;;;;;;5017151;28;1517;-73
2020/12/31 00:30:00;;;;;;;;;;;;;;;;;;5018014;28;1898;-74
2020/12/31 00:32:25;;;;;;;;;;;;;;;;;;5017234;28;1231;-72
2020/12/31 00:34:50;;;;;;;;;;;;;;;;;;5017018;28;1361;-71
2020/12/31 00:37:16;;;;;;;;;;;;;;;;;;5018399;28;838;-73
2020/12/31 00:39:41;;;;;;;;;;;;;;;;;;5016888;28;1290;-72
2020/12/31 00:42:06;;;;;;;;;;;;;;;;;;5017164;28;1302;-72
2020/12/31 00:44:33;;;;;;;;;;;;;;;;;;5016653;28;1290;-73
2020/12/31 00:46:58;;;;;;;;;;;;;;;;;;5018230;28;859;-73
2020/12/31 00:49:23;;;;;;;;;;;;;;;;;;5018171;28;1897;-72
2020/12/31 00:51:49;;;;;;;;;;;;;;;;;;5017885;28;916;-75
2020/12/31 00:54:14;;;;;;;;;;;;;;;;;;5016669;28;1299;-73
2020/12/31 00:56:39;;;;;;;;;;;;;;;;;;5017972;28;889;-71
2020/12/31 00:59:04;;;;;;;;;;;;;;;;;;5017647;28;937;-73
2020/12/31 01:01:30;;;;;;;;;;;;;;;;;;5017843;28;841;-74
2020/12/31 01:03:55;;;;;;;;;;;;;;;;;;5017675;28;826;-73
2020/12/31 01:06:20;;;;;;;;;;;;;;;;;;5017844;28;1429;-72
2020/12/31 01:08:45;;;;;;;;;;;;;;;;;;5016950;28;1969;-72
2020/12/31 01:11:11;;;;;;;;;;;;;;;;;;5017593;28;814;-71
2020/12/31 01:13:37;;;;;;;;;;;;;;;;;;5017534;28;996;-72
2020/12/31 01:16:02;;;;;;;;;;;;;;;;;;5017543;28;1406;-72
2020/12/31 01:18:27;;;;;;;;;;;;;;;;;;5016366;28;1397;-75
2020/12/31 01:20:52;;;;;;;;;;;;;;;;;;5017435;28;821;-71
2020/12/31 01:23:18;;;;;;;;;;;;;;;;;;5016853;28;1334;-71
2020/12/31 01:25:43;;;;;;;;;;;;;;;;;;5017252;28;1397;-71
2020/12/31 01:28:08;;;;;;;;;;;;;;;;;;5017255;28;1906;-73
2020/12/31 01:30:33;;;;;;;;;;;;;;;;;;5017169;28;860;-72
2020/12/31 01:32:59;;;;;;;;;;;;;;;;;;5017109;28;853;-72
2020/12/31 01:35:24;;;;;;;;;;;;;;;;;;5017459;28;1330;-71
2020/12/31 01:37:49;;;;;;;;;;;;;;;;;;5015977;28;1192;-70
2020/12/31 01:40:15;;;;;;;;;;;;;;;;;;5016732;28;849;-72
2020/12/31 01:42:41;;;;;;;;;;;;;;;;;;5016230;28;1356;-71
2020/12/31 01:45:06;;;;;;;;;;;;;;;;;;5017137;28;1330;-74
2020/12/31 01:47:32;;;;;;;;;;;;;;;;;;5015617;28;1399;-70
2020/12/31 01:49:57;;;;;;;;;;;;;;;;;;5016800;28;1894;-71
2020/12/31 01:52:22;;;;;;;;;;;;;;;;;;5017053;28;885;-70
2020/12/31 01:54:48;;;;;;;;;;;;;;;;;;5015480;28;1433;-71
2020/12/31 01:57:13;;;;;;;;;;;;;;;;;;5016829;28;839;-69
2020/12/31 01:59:39;;;;;;;;;;;;;;;;;;5016773;28;845;-73
2020/12/31 02:02:04;;;;;;;;;;;;;;;;;;5016593;28;940;-70
2020/12/31 02:04:29;;;;;;;;;;;;;;;;;;5015456;28;1377;-74
2020/12/31 02:06:55;;;;;;;;;;;;;;;;;;5015691;28;1236;-70
2020/12/31 02:09:20;;;;;;;;;;;;;;;;;;5016652;28;1968;-71
2020/12/31 02:11:45;;;;;;;;;;;;;;;;;;5016456;28;1336;-72
2020/12/31 02:14:11;;;;;;;;;;;;;;;;;;5016251;28;1286;-73
2020/12/31 02:16:37;;;;;;;;;;;;;;;;;;5016523;28;1020;-73
2020/12/31 02:19:04;;;;;;;;;;;;;;;;;;5016591;28;884;-70
2020/12/31 02:21:34;;;;;;;;;;;;;;;;;;5016309;28;913;-71
2020/12/31 02:24:00;;;;;;;;;;;;;;;;;;5014935;28;1243;-70
2020/12/31 02:26:26;;;;;;;;;;;;;;;;;;5016166;28;1421;-72
2020/12/31 02:28:52;;;;;;;;;;;;;;;;;;5014925;28;1894;-72
2020/12/31 02:31:18;;;;;;;;;;;;;;;;;;5014928;28;1271;-70
2020/12/31 02:33:50;;;;;;;;;;;;;;;;;;5015275;28;1495;-72
2020/12/31 02:36:16;;;;;;;;;;;;;;;;;;5014796;28;1436;-71
2020/12/31 02:38:42;;;;;;;;;;;;;;;;;;5016007;28;929;-73
2020/12/31 02:41:07;;;;;;;;;;;;;;;;;;5014643;28;1193;-72
2020/12/31 02:43:33;;;;;;;;;;;;;;;;;;5014632;28;1287;-71
2020/12/31 02:45:58;;;;;;;;;;;;;;;;;;5015016;28;1413;-72
2020/12/31 02:48:23;;;;;;;;;;;;;;;;;;5015961;28;1961;-73
2020/12/31 02:50:49;;;;;;;;;;;;;;;;;;5015751;28;913;-70
2020/12/31 02:53:14;;;;;;;;;;;;;;;;;;5015742;28;1000;-72
2020/12/31 02:55:39;;;;;;;;;;;;;;;;;;5015771;28;1417;-70
2020/12/31 02:58:04;;;;;;;;;;;;;;;;;;5015628;28;913;-71
2020/12/31 03:00:30;;;;;;;;;;;;;;;;;;5014649;28;1173;-72
2020/12/31 03:02:55;;;;;;;;;;;;;;;;;;5015828;28;1000;-70
2020/12/31 03:05:20;;;;;;;;;;;;;;;;;;5015642;28;1358;-73
2020/12/31 03:07:53;;;;;;;;;;;;;;;;;;5153653;27;1712;-70
2020/12/31 03:10:18;;;;;;;;;;;;;;;;;;5153502;27;881;-71
2020/12/31 03:12:43;;;;;;;;;;;;;;;;;;5153531;27;991;-71
2020/12/31 03:15:16;;;;;;;;;;;;;;;;;;5153640;27;1345;-70
2020/12/31 03:17:42;;;;;;;;;;;;;;;;;;5153453;27;829;-70
2020/12/31 03:20:07;;;;;;;;;;;;;;;;;;5152401;27;1250;-71
2020/12/31 03:22:33;;;;;;;;;;;;;;;;;;5153387;27;1013;-71
2020/12/31 03:24:58;;;;;;;;;;;;;;;;;;5152294;27;1391;-70
2020/12/31 03:27:24;;;;;;;;;;;;;;;;;;5153166;27;1972;-71
2020/12/31 03:29:49;;;;;;;;;;;;;;;;;;5152102;27;993;-71
2020/12/31 03:32:14;;;;;;;;;;;;;;;;;;5153348;27;804;-70
2020/12/31 03:34:40;;;;;;;;;;;;;;;;;;5153119;27;1296;-71
2020/12/31 03:37:05;;;;;;;;;;;;;;;;;;5152101;27;875;-70
2020/12/31 03:39:30;;;;;;;;;;;;;;;;;;5153192;27;892;-70
2020/12/31 03:41:55;;;;;;;;;;;;;;;;;;5152657;27;931;-69
2020/12/31 03:44:21;;;;;;;;;;;;;;;;;;5153050;27;1307;-71
2020/12/31 03:46:46;;;;;;;;;;;;;;;;;;5152967;27;1960;-73
2020/12/31 03:49:11;;;;;;;;;;;;;;;;;;5151927;27;951;-72
2020/12/31 03:51:36;;;;;;;;;;;;;;;;;;5152502;27;1066;-70
2020/12/31 03:54:01;;;;;;;;;;;;;;;;;;5151506;27;1552;-73
2020/12/31 03:56:27;;;;;;;;;;;;;;;;;;5152583;27;1375;-69
2020/12/31 03:58:52;;;;;;;;;;;;;;;;;;5152795;27;816;-70
2020/12/31 04:01:17;;;;;;;;;;;;;;;;;;5152770;27;799;-71
2020/12/31 04:03:42;;;;;;;;;;;;;;;;;;5151658;27;1226;-71
2020/12/31 04:06:07;;;;;;;;;;;;;;;;;;5152212;27;1948;-71
2020/12/31 04:08:33;;;;;;;;;;;;;;;;;;5152411;27;915;-71
2020/12/31 04:10:58;;;;;;;;;;;;;;;;;;5152491;27;970;-72
2020/12/31 04:13:23;;;;;;;;;;;;;;;;;;5152703;27;824;-72
2020/12/31 04:15:48;;;;;;;;;;;;;;;;;;5150734;27;2955;-71
2020/12/31 04:18:14;;;;;;;;;;;;;;;;;;5143462;27;812;-71
2020/12/31 04:20:39;;;;;;;;;;;;;;;;;;5120123;27;940;-72
2020/12/31 04:23:04;;;;;;;;;;;;;;;;;;5136936;27;1309;-71
2020/12/31 04:25:29;;;;;;;;;;;;;;;;;;5137283;27;1905;-70
2020/12/31 04:27:55;;;;;;;;;;;;;;;;;;5138510;27;864;-72
2020/12/31 04:30:20;;;;;;;;;;;;;;;;;;5137197;27;868;-72
2020/12/31 04:32:45;;;;;;;;;;;;;;;;;;5137062;27;1421;-70
2020/12/31 04:35:10;;;;;;;;;;;;;;;;;;5138030;27;1305;-72
2020/12/31 04:37:35;;;;;;;;;;;;;;;;;;5138141;27;816;-71
2020/12/31 04:40:01;;;;;;;;;;;;;;;;;;5138038;27;883;-72
2020/12/31 04:42:33;;;;;;;;;;;;;;;;;;5138106;27;912;-72
2020/12/31 04:44:58;;;;;;;;;;;;;;;;;;5136641;27;1320;-71
2020/12/31 04:47:23;;;;;;;;;;;;;;;;;;5137977;27;1910;-71
2020/12/31 04:49:50;;;;;;;;;;;;;;;;;;5137801;27;927;-69
2020/12/31 04:52:15;;;;;;;;;;;;;;;;;;5137769;27;1046;-69
2020/12/31 04:54:42;;;;;;;;;;;;;;;;;;5138194;27;1424;-72
2020/12/31 04:57:07;;;;;;;;;;;;;;;;;;5136630;27;896;-71
2020/12/31 04:59:33;;;;;;;;;;;;;;;;;;5136536;27;1242;-71
2020/12/31 05:01:58;;;;;;;;;;;;;;;;;;5137577;27;884;-73
2020/12/31 05:04:23;;;;;;;;;;;;;;;;;;5137568;27;1320;-70
2020/12/31 05:06:51;;;;;;;;;;;;;;;;;;5137602;27;1898;-72
2020/12/31 05:09:17;;;;;;;;;;;;;;;;;;5136536;27;1564;-71
2020/12/31 05:11:47;;;;;;;;;;;;;;;;;;5137366;27;935;-72
2020/12/31 05:14:12;;;;;;;;;;;;;;;;;;5136118;27;1308;-72
2020/12/31 05:16:37;;;;;;;;;;;;;;;;;;5137166;27;852;-70
2020/12/31 05:19:18;;;;;;;;;;;;;;;;;;5136073;27;2273;-72
2020/12/31 05:21:43;;;;;;;;;;;;;;;;;;5136191;27;1370;-72
2020/12/31 05:24:12;;;;;;;;;;;;;;;;;;5137164;27;931;-69
2020/12/31 05:26:38;;;;;;;;;;;;;;;;;;5137245;27;1889;-71
2020/12/31 05:29:03;;;;;;;;;;;;;;;;;;5136622;27;832;-70
2020/12/31 05:31:28;;;;;;;;;;;;;;;;;;5136630;27;916;-72
2020/12/31 05:33:54;;;;;;;;;;;;;;;;;;5137035;27;868;-78
2020/12/31 05:36:20;;;;;;;;;;;;;;;;;;5137049;27;1404;-76
2020/12/31 05:39:06;;;;;;;;;;;;;;;;;;5137351;27;853;-77
2020/12/31 05:41:35;;;;;;;;;;;;;;;;;;5136592;27;1021;-74
2020/12/31 05:44:04;;;;;;;;;;;;;;;;;;5136880;27;923;-76
2020/12/31 05:46:30;;;;;;;;;;;;;;;;;;5135299;27;1901;-77
2020/12/31 05:48:59;;;;;;;;;;;;;;;;;;5135751;27;864;-78
2020/12/31 05:51:28;;;;;;;;;;;;;;;;;;5135504;27;1185;-73
2020/12/31 05:54:04;;;;;;;;;;;;;;;;;;5136809;27;884;-76
2020/12/31 05:56:30;;;;;;;;;;;;;;;;;;5136697;27;1435;-74
2020/12/31 05:59:00;;;;;;;;;;;;;;;;;;5135470;27;856;-74
2020/12/31 06:01:29;;;;;;;;;;;;;;;;;;5136522;27;902;-76
2020/12/31 06:04:09;;;;;;;;;;;;;;;;;;5135283;27;922;-77
2020/12/31 06:06:38;;;;;;;;;;;;;;;;;;5136005;27;1961;-76
2020/12/31 06:09:04;;;;;;;;;;;;;;;;;;5136327;27;903;-75
2020/12/31 06:11:31;;;;;;;;;;;;;;;;;;5136167;27;905;-77
2020/12/31 06:13:57;;;;;;;;;;;;;;;;;;5136285;27;867;-73
2020/12/31 06:16:25;;;;;;;;;;;;;;;;;;5134953;27;1458;-73
2020/12/31 06:18:58;;;;;;;;;;;;;;;;;;5136373;27;975;-75
2020/12/31 06:21:29;;;;;;;;;;;;;;;;;;5136232;27;922;-77
2020/12/31 06:23:55;;;;;;;;;;;;;;;;;;5136717;27;866;-74
2020/12/31 06:26:29;;;;;;;;;;;;;;;;;;5134669;27;1905;-76
2020/12/31 06:28:54;;;;;;;;;;;;;;;;;;5136069;27;892;-76
2020/12/31 06:31:19;;;;;;;;;;;;;;;;;;5135848;27;915;-77
2020/12/31 06:33:46;;;;;;;;;;;;;;;;;;5136015;27;931;-76
2020/12/31 06:36:12;;;;;;;;;;;;;;;;;;5135773;27;1407;-76
2020/12/31 06:38:39;;;;;;;;;;;;;;;;;;5134953;27;1512;-77
2020/12/31 06:41:06;;;;;;;;;;;;;;;;;;5135667;27;880;-77
2020/12/31 06:43:32;;;;;;;;;;;;;;;;;;5135876;27;915;-76
2020/12/31 06:45:58;;;;;;;;;;;;;;;;;;5135992;27;1890;-75
2020/12/31 06:48:23;;;;;;;;;;;;;;;;;;5134587;27;1393;-76
2020/12/31 06:51:07;;;;;;;;;;;;;;;;;;5135402;27;1061;-75
2020/12/31 06:53:33;;;;;;;;;;;;;;;;;;5134880;27;1214;-76
2020/12/31 06:56:00;;;;;;;;;;;;;;;;;;5134682;27;1498;-74
2020/12/31 06:58:25;;;;;;;;;;;;;;;;;;5134531;27;829;-76
2020/12/31 07:00:52;;;;;;;;;;;;;;;;;;5135599;27;958;-76
2020/12/31 07:03:36;;;;;;;;;;;;;;;;;;5134470;27;1200;-76
2020/12/31 07:06:19;;;;;;;;;;;;;;;;;;5135250;28;1889;-75
2020/12/31 07:08:45;;;;;;;;;;;;;;;;;;5135306;28;1007;-75
2020/12/31 07:11:10;;;;;;;;;;;;;;;;;;5135321;28;1034;-73
2020/12/31 07:13:38;;;;;;;;;;;;;;;;;;5135366;28;987;-77
2020/12/31 07:16:03;;;;;;;;;;;;;;;;;;5135512;28;1376;-71
2020/12/31 07:18:31;;;;;;;;;;;;;;;;;;5134533;28;945;-75
2020/12/31 07:20:58;;;;;;;;;;;;;;;;;;5135238;28;832;-77
2020/12/31 07:23:35;;;;;;;;;;;;;;;;;;5135667;28;967;-75
2020/12/31 07:26:02;;;;;;;;;;;;;;;;;;5133857;28;1909;-73
2020/12/31 07:28:27;;;;;;;;;;;;;;;;;;5135046;28;880;-72
2020/12/31 07:30:53;;;;;;;;;;;;;;;;;;5133864;28;825;-75
2020/12/31 07:33:33;;;;;;;;;;;;;;;;;;5135328;28;963;-76
2020/12/31 07:35:58;;;;;;;;;;;;;;;;;;5133774;28;1571;-73
2020/12/31 07:38:25;;;;;;;;;;;;;;;;;;5133791;28;828;-76
2020/12/31 07:40:54;;;;;;;;;;;;;;;;;;5133731;28;1206;-74
2020/12/31 07:43:20;;;;;;;;;;;;;;;;;;5135198;28;966;-77
2020/12/31 07:45:49;;;;;;;;;;;;;;;;;;5133744;28;1898;-75
2020/12/31 07:48:14;;;;;;;;;;;;;;;;;;5135021;28;859;-75
2020/12/31 07:50:42;;;;;;;;;;;;;;;;;;5135067;28;772;-74
2020/12/31 07:53:07;;;;;;;;;;;;;;;;;;5136407;27;824;-73
2020/12/31 07:55:35;;;;;;;;;;;;;;;;;;5139272;27;1407;-75
2020/12/31 07:58:01;;;;;;;;;;;;;;;;;;5138853;27;900;-75
2020/12/31 08:00:26;;;;;;;;;;;;;;;;;;5138786;27;808;-75
2020/12/31 08:02:52;;;;;;;;;;;;;;;;;;5138886;27;819;-76
2020/12/31 08:05:19;;;;;;;;;;;;;;;;;;5138864;27;1316;-71
2020/12/31 08:07:44;;;;;;;;;;;;;;;;;;5138570;27;1964;-77
2020/12/31 08:10:11;;;;;;;;;;;;;;;;;;5137317;27;1241;-74
2020/12/31 08:12:38;;;;;;;;;;;;;;;;;;5137444;27;1350;-76
2020/12/31 08:15:04;;;;;;;;;;;;;;;;;;5137399;27;1333;-72
2020/12/31 08:17:29;;;;;;;;;;;;;;;;;;5137269;27;1261;-73
2020/12/31 08:19:55;;;;;;;;;;;;;;;;;;5138444;27;887;-76
2020/12/31 08:22:30;;;;;;;;;;;;;;;;;;5137164;27;1343;-71
2020/12/31 08:25:25;;;;;;;;;;;;;;;;;;5137009;27;1356;-74
2020/12/31 08:27:50;;;;;;;;;;;;;;;;;;5127935;27;1902;-72
2020/12/31 08:30:17;;;;;;;;;;;;;;;;;;5137075;27;1488;-74
2020/12/31 08:32:49;;;;;;;;;;;;;;;;;;5137392;27;1026;-72
2020/12/31 08:35:18;;;;;;;;;;;;;;;;;;5137980;27;1423;-75
2020/12/31 08:37:45;;;;;;;;;;;;;;;;;;5136925;27;1170;-75
2020/12/31 08:40:18;;;;;;;;;;;;;;;;;;5138012;27;812;-71
2020/12/31 08:42:51;;;;;;;;;;;;;;;;;;5137220;27;923;-71
2020/12/31 08:45:23;;;;;;;;;;;;;;;;;;5138016;27;1309;-73
2020/12/31 08:47:48;;;;;;;;;;;;;;;;;;5138007;27;1897;-71
2020/12/31 08:50:15;;;;;;;;;;;;;;;;;;5136891;27;884;-72
2020/12/31 08:52:40;;;;;;;;;;;;;;;;;;5137944;27;974;-74
2020/12/31 08:55:10;;;;;;;;;;;;;;;;;;5137884;27;1379;-73
2020/12/31 08:57:35;;;;;;;;;;;;;;;;;;5137786;27;1729;-73
2020/12/31 09:00:00;;;;;;;;;;;;;;;;;;5135963;27;1344;-75
2020/12/31 09:02:26;;;;;;;;;;;;;;;;;;5138084;27;788;-73
2020/12/31 09:05:10;;;;;;;;;;;;;;;;;;5136276;27;1380;-73
2020/12/31 09:07:35;;;;;;;;;;;;;;;;;;5137466;27;1969;-71
2020/12/31 09:10:10;;;;;;;;;;;;;;;;;;5136568;27;1123;-75
2020/12/31 09:12:36;;;;;;;;;;;;;;;;;;5137848;27;812;-75
2020/12/31 09:15:04;;;;;;;;;;;;;;;;;;5137252;27;1435;-71
2020/12/31 09:17:32;;;;;;;;;;;;;;;;;;5136238;27;1612;-75
2020/12/31 09:19:57;;;;;;;;;;;;;;;;;;5136000;27;1298;-73
2020/12/31 09:22:24;;;;;;;;;;;;;;;;;;5137581;27;872;-71
2020/12/31 09:24:50;;;;;;;;;;;;;;;;;;5135745;27;1379;-71
2020/12/31 09:27:22;;;;;;;;;;;;;;;;;;5137156;27;1897;-72
2020/12/31 09:29:54;;;;;;;;;;;;;;;;;;5135761;27;821;-72
2020/12/31 09:32:19;;;;;;;;;;;;;;;;;;5135952;27;1550;-73
2020/12/31 09:34:45;;;;;;;;;;;;;;;;;;5136882;27;1293;-74
2020/12/31 09:37:12;;;;;;;;;;;;;;;;;;5137028;27;926;-70
2020/12/31 09:39:37;;;;;;;;;;;;;;;;;;5136861;27;882;-72
2020/12/31 09:42:02;;;;;;;;;;;;;;;;;;5135698;27;1344;-74
2020/12/31 09:44:28;;;;;;;;;;;;;;;;;;5136991;27;1368;-75
2020/12/31 09:46:53;;;;;;;;;;;;;;;;;;5136807;27;1970;-71
2020/12/31 09:49:18;;;;;;;;;;;;;;;;;;5136848;27;904;-73
2020/12/31 09:51:46;;;;;;;;;;;;;;;;;;5136450;27;856;-73
2020/12/31 09:54:11;;;;;;;;;;;;;;;;;;5135525;27;1694;-74
2020/12/31 09:56:36;;;;;;;;;;;;;;;;;;5136388;27;966;-72
2020/12/31 09:59:01;;;;;;;;;;;;;;;;;;5135225;27;1485;-71
2020/12/31 10:01:26;;;;;;;;;;;;;;;;;;5135169;27;1327;-74
2020/12/31 10:03:52;;;;;;;;;;;;;;;;;;5136675;27;892;-74
2020/12/31 10:06:17;;;;;;;;;;;;;;;;;;5134714;27;1976;-72
2020/12/31 10:08:42;;;;;;;;;;;;;;;;;;5135571;27;1389;-73
2020/12/31 10:11:07;;;;;;;;;;;;;;;;;;5136203;27;907;-74
2020/12/31 10:13:33;;;;;;;;;;;;;;;;;;5135463;27;1249;-71
2020/12/31 10:16:02;;;;;;;;;;;;;;;;;;5134315;27;1348;-73
2020/12/31 10:18:27;;;;;;;;;;;;;;;;;;5136241;27;994;-73
2020/12/31 10:20:52;;;;;;;;;;;;;;;;;;5134703;27;915;-72
2020/12/31 10:23:18;;;;;;;;;;;;;;;;;;5136086;27;840;-72
2020/12/31 10:25:43;;;;;;;;;;;;;;;;;;5136079;27;1894;-72
2020/12/31 10:28:08;;;;;;;;;;;;;;;;;;5134852;27;1328;-72
2020/12/31 10:30:33;;;;;;;;;;;;;;;;;;5134764;27;1591;-73
2020/12/31 10:32:58;;;;;;;;;;;;;;;;;;5136224;27;888;-71
2020/12/31 10:35:24;;;;;;;;;;;;;;;;;;5134701;27;1400;-74
2020/12/31 10:37:49;;;;;;;;;;;;;;;;;;5135811;27;800;-75
2020/12/31 10:40:14;;;;;;;;;;;;;;;;;;5134488;27;1233;-72
2020/12/31 10:42:40;;;;;;;;;;;;;;;;;;5134479;27;1229;-72
2020/12/31 10:45:05;;;;;;;;;;;;;;;;;;5135810;27;1407;-72
2020/12/31 10:47:31;;;;;;;;;;;;;;;;;;5135949;27;1894;-73
2020/12/31 10:49:56;;;;;;;;;;;;;;;;;;5135852;27;880;-72
2020/12/31 10:52:21;;;;;;;;;;;;;;;;;;5135721;27;923;-72
2020/12/31 10:54:46;;;;;;;;;;;;;;;;;;5135712;27;1424;-75
2020/12/31 10:57:12;;;;;;;;;;;;;;;;;;5134372;27;892;-75
2020/12/31 10:59:37;;;;;;;;;;;;;;;;;;5135435;27;900;-74
2020/12/31 11:02:02;;;;;;;;;;;;;;;;;;5134353;27;1375;-72
2020/12/31 11:04:27;;;;;;;;;;;;;;;;;;5135446;27;1345;-72
2020/12/31 11:06:53;;;;;;;;;;;;;;;;;;5135341;28;1971;-72
2020/12/31 11:09:18;;;;;;;;;;;;;;;;;;5135631;28;825;-73
2020/12/31 11:11:43;;;;;;;;;;;;;;;;;;5134359;28;1341;-73
2020/12/31 11:14:09;;;;;;;;;;;;;;;;;;5135446;28;821;-73
2020/12/31 11:16:34;;;;;;;;;;;;;;;;;;5134103;28;1458;-74
2020/12/31 11:18:59;;;;;;;;;;;;;;;;;;5135521;28;914;-71
2020/12/31 11:21:25;;;;;;;;;;;;;;;;;;5133830;28;1744;-74
2020/12/31 11:23:50;;;;;;;;;;;;;;;;;;5134614;28;880;-73
2020/12/31 11:26:16;;;;;;;;;;;;;;;;;;5134138;28;1953;-72
2020/12/31 11:28:42;;;;;;;;;;;;;;;;;;5137684;27;950;-73
2020/12/31 11:31:09;;;;;;;;;;;;;;;;;;5139492;27;891;-72
2020/12/31 11:33:35;;;;;;;;;;;;;;;;;;5138198;27;780;-72
2020/12/31 11:36:00;;;;;;;;;;;;;;;;;;5139383;27;1277;-75
2020/12/31 11:38:26;;;;;;;;;;;;;;;;;;5139469;27;938;-73
2020/12/31 11:40:51;;;;;;;;;;;;;;;;;;5139159;27;879;-72
2020/12/31 11:43:17;;;;;;;;;;;;;;;;;;5139549;27;863;-75
2020/12/31 11:45:42;;;;;;;;;;;;;;;;;;5139363;27;1308;-71
2020/12/31 11:48:07;;;;;;;;;;;;;;;;;;5137982;27;1946;-74
2020/12/31 11:50:32;;;;;;;;;;;;;;;;;;5137705;27;915;-72
2020/12/31 11:52:58;;;;;;;;;;;;;;;;;;5139109;27;840;-72
2020/12/31 11:55:24;;;;;;;;;;;;;;;;;;5138876;27;1396;-74
2020/12/31 11:57:49;;;;;;;;;;;;;;;;;;5139061;27;919;-72
2020/12/31 12:00:14;;;;;;;;;;;;;;;;;;5138781;27;903;-71
2020/12/31 12:02:40;;;;;;;;;;;;;;;;;;5137741;27;1293;-73
2020/12/31 12:05:05;;;;;;;;;;;;;;;;;;5137560;27;1423;-71
2020/12/31 12:07:31;;;;;;;;;;;;;;;;;;5138610;27;1967;-71
2020/12/31 12:09:56;;;;;;;;;;;;;;;;;;5138460;27;805;-72
2020/12/31 12:12:21;;;;;;;;;;;;;;;;;;5139172;27;891;-74
2020/12/31 12:14:46;;;;;;;;;;;;;;;;;;5137609;27;1455;-72
2020/12/31 12:17:12;;;;;;;;;;;;;;;;;;5138704;27;825;-72
2020/12/31 12:19:38;;;;;;;;;;;;;;;;;;5138516;27;844;-72
2020/12/31 12:22:03;;;;;;;;;;;;;;;;;;5138594;27;833;-73
2020/12/31 12:24:28;;;;;;;;;;;;;;;;;;5137189;27;1426;-70
2020/12/31 12:26:54;;;;;;;;;;;;;;;;;;5138337;27;1897;-72
2020/12/31 12:29:19;;;;;;;;;;;;;;;;;;5137346;27;1165;-73
2020/12/31 12:31:44;;;;;;;;;;;;;;;;;;5138054;27;864;-71
2020/12/31 12:34:10;;;;;;;;;;;;;;;;;;5137009;27;1317;-71
2020/12/31 12:36:35;;;;;;;;;;;;;;;;;;5137088;27;1211;-74
2020/12/31 12:39:01;;;;;;;;;;;;;;;;;;5136691;27;812;-73
2020/12/31 12:41:26;;;;;;;;;;;;;;;;;;5138173;27;871;-71
2020/12/31 12:43:51;;;;;;;;;;;;;;;;;;5137035;27;1409;-71
2020/12/31 12:46:17;;;;;;;;;;;;;;;;;;5136422;27;1893;-72
2020/12/31 12:48:43;;;;;;;;;;;;;;;;;;5136831;27;1224;-70
2020/12/31 12:51:08;;;;;;;;;;;;;;;;;;5136420;27;1193;-73
2020/12/31 12:53:34;;;;;;;;;;;;;;;;;;5138055;27;852;-72
2020/12/31 12:55:59;;;;;;;;;;;;;;;;;;5137826;27;1317;-72
2020/12/31 12:58:24;;;;;;;;;;;;;;;;;;5137662;27;1013;-73
2020/12/31 13:00:50;;;;;;;;;;;;;;;;;;5137883;27;817;-72
2020/12/31 13:03:15;;;;;;;;;;;;;;;;;;5137796;27;887;-71
2020/12/31 13:05:40;;;;;;;;;;;;;;;;;;5137627;27;1340;-72
2020/12/31 13:08:06;;;;;;;;;;;;;;;;;;5137602;27;1901;-71
2020/12/31 13:10:31;;;;;;;;;;;;;;;;;;5136325;27;1377;-72
2020/12/31 13:12:57;;;;;;;;;;;;;;;;;;5137567;27;896;-72
2020/12/31 13:15:22;;;;;;;;;;;;;;;;;;5136232;27;1553;-73
2020/12/31 13:17:47;;;;;;;;;;;;;;;;;;5136342;27;947;-71
2020/12/31 13:20:12;;;;;;;;;;;;;;;;;;5136027;27;875;-72
2020/12/31 13:22:37;;;;;;;;;;;;;;;;;;5136439;27;946;-71
2020/12/31 13:25:03;;;;;;;;;;;;;;;;;;5136351;27;1483;-72
2020/12/31 13:27:28;;;;;;;;;;;;;;;;;;5136990;27;1977;-72
2020/12/31 13:29:53;;;;;;;;;;;;;;;;;;5135643;27;1367;-69
2020/12/31 13:32:19;;;;;;;;;;;;;;;;;;5137024;27;916;-69
2020/12/31 13:34:44;;;;;;;;;;;;;;;;;;5136899;27;1344;-70
2020/12/31 13:37:09;;;;;;;;;;;;;;;;;;5136974;27;939;-68
2020/12/31 13:39:34;;;;;;;;;;;;;;;;;;5136879;27;879;-68
2020/12/31 13:42:00;;;;;;;;;;;;;;;;;;5137029;27;863;-68
2020/12/31 13:44:25;;;;;;;;;;;;;;;;;;5135479;27;1389;-69
2020/12/31 13:46:50;;;;;;;;;;;;;;;;;;5136504;27;1894;-69
2020/12/31 13:49:16;;;;;;;;;;;;;;;;;;5135585;27;1189;-69
2020/12/31 13:51:41;;;;;;;;;;;;;;;;;;5135706;27;852;-68
2020/12/31 13:54:07;;;;;;;;;;;;;;;;;;5136474;27;951;-68
2020/12/31 13:56:32;;;;;;;;;;;;;;;;;;5136803;27;1415;-68
2020/12/31 13:58:57;;;;;;;;;;;;;;;;;;5136793;27;797;-68
2020/12/31 14:01:22;;;;;;;;;;;;;;;;;;5136411;27;812;-68
2020/12/31 14:03:47;;;;;;;;;;;;;;;;;;5136496;27;879;-68
2020/12/31 14:06:13;;;;;;;;;;;;;;;;;;5136155;27;1898;-68
2020/12/31 14:08:38;;;;;;;;;;;;;;;;;;5136410;27;868;-69
2020/12/31 14:11:03;;;;;;;;;;;;;;;;;;5136308;27;904;-67
2020/12/31 14:13:29;;;;;;;;;;;;;;;;;;5136306;27;831;-69
2020/12/31 14:15:54;;;;;;;;;;;;;;;;;;5136099;27;1321;-68
2020/12/31 14:18:19;;;;;;;;;;;;;;;;;;5136421;27;1034;-68
2020/12/31 14:20:45;;;;;;;;;;;;;;;;;;5135021;27;896;-69
2020/12/31 14:23:11;;;;;;;;;;;;;;;;;;5136149;27;1021;-69
2020/12/31 14:25:37;;;;;;;;;;;;;;;;;;5135905;27;1411;-68
2020/12/31 14:28:02;;;;;;;;;;;;;;;;;;5136115;27;1890;-68
2020/12/31 14:30:27;;;;;;;;;;;;;;;;;;5134916;27;907;-69
2020/12/31 14:32:52;;;;;;;;;;;;;;;;;;5134723;27;907;-68
2020/12/31 14:35:18;;;;;;;;;;;;;;;;;;5135828;27;1305;-69
2020/12/31 14:37:45;;;;;;;;;;;;;;;;;;5134986;27;1230;-68
2020/12/31 14:40:10;;;;;;;;;;;;;;;;;;5135771;27;915;-69
2020/12/31 14:42:36;;;;;;;;;;;;;;;;;;5135857;27;730;-67
2020/12/31 14:45:01;;;;;;;;;;;;;;;;;;5134459;27;1408;-69
2020/12/31 14:47:26;;;;;;;;;;;;;;;;;;5135631;27;1890;-68
2020/12/31 14:49:51;;;;;;;;;;;;;;;;;;5135631;27;838;-68
2020/12/31 14:52:17;;;;;;;;;;;;;;;;;;5135894;27;833;-68
2020/12/31 14:54:42;;;;;;;;;;;;;;;;;;5135439;27;1336;-69
2020/12/31 14:57:07;;;;;;;;;;;;;;;;;;5129984;27;954;-69
2020/12/31 14:59:32;;;;;;;;;;;;;;;;;;5114068;28;825;-68
2020/12/31 15:01:58;;;;;;;;;;;;;;;;;;5114759;28;943;-69
2020/12/31 15:04:23;;;;;;;;;;;;;;;;;;5114566;28;1324;-68
2020/12/31 15:06:48;;;;;;;;;;;;;;;;;;5126211;28;1956;-67
2020/12/31 15:09:14;;;;;;;;;;;;;;;;;;5135702;27;875;-67
2020/12/31 15:11:39;;;;;;;;;;;;;;;;;;5135273;27;942;-67
2020/12/31 15:14:04;;;;;;;;;;;;;;;;;;5135721;27;883;-68
2020/12/31 15:16:29;;;;;;;;;;;;;;;;;;5135206;27;1329;-69
2020/12/31 15:18:55;;;;;;;;;;;;;;;;;;5134099;28;824;-68
2020/12/31 15:21:20;;;;;;;;;;;;;;;;;;5134450;28;1205;-69
2020/12/31 15:23:46;;;;;;;;;;;;;;;;;;5134097;28;1455;-69
2020/12/31 15:26:11;;;;;;;;;;;;;;;;;;5135411;27;1894;-68
2020/12/31 15:28:36;;;;;;;;;;;;;;;;;;5135611;27;857;-68
2020/12/31 15:31:02;;;;;;;;;;;;;;;;;;5134184;28;915;-68
2020/12/31 15:33:27;;;;;;;;;;;;;;;;;;5133813;28;2352;-68
2020/12/31 15:35:52;;;;;;;;;;;;;;;;;;5133933;28;1305;-68
2020/12/31 15:38:18;;;;;;;;;;;;;;;;;;5135197;28;903;-67
2020/12/31 15:40:43;;;;;;;;;;;;;;;;;;5134486;28;1201;-68
2020/12/31 15:43:09;;;;;;;;;;;;;;;;;;5135053;27;804;-68
2020/12/31 15:45:35;;;;;;;;;;;;;;;;;;5134810;27;1852;-68
2020/12/31 15:48:01;;;;;;;;;;;;;;;;;;5133587;28;1954;-68
2020/12/31 15:50:26;;;;;;;;;;;;;;;;;;5135084;28;920;-67
2020/12/31 15:52:51;;;;;;;;;;;;;;;;;;5134845;28;886;-69
2020/12/31 15:55:20;;;;;;;;;;;;;;;;;;5133822;28;1312;-67
2020/12/31 15:57:46;;;;;;;;;;;;;;;;;;5134993;28;880;-68
2020/12/31 16:00:12;;;;;;;;;;;;;;;;;;5134846;28;892;-69
2020/12/31 16:02:38;;;;;;;;;;;;;;;;;;5133978;28;944;-69
2020/12/31 16:05:04;;;;;;;;;;;;;;;;;;5134953;28;1293;-68
2020/12/31 16:07:30;;;;;;;;;;;;;;;;;;5133752;28;1937;-68
2020/12/31 16:09:55;;;;;;;;;;;;;;;;;;5134068;28;868;-69
2020/12/31 16:12:23;;;;;;;;;;;;;;;;;;5134951;28;958;-68
2020/12/31 16:14:48;;;;;;;;;;;;;;;;;;5136849;27;1337;-68
2020/12/31 16:17:14;;;;;;;;;;;;;;;;;;5138763;27;923;-68
2020/12/31 16:19:39;;;;;;;;;;;;;;;;;;5138433;27;801;-69
2020/12/31 16:22:05;;;;;;;;;;;;;;;;;;5137307;27;935;-68
2020/12/31 16:24:30;;;;;;;;;;;;;;;;;;5137607;27;1487;-68
2020/12/31 16:26:55;;;;;;;;;;;;;;;;;;5137170;27;1968;-67
2020/12/31 16:29:20;;;;;;;;;;;;;;;;;;5138160;27;963;-68
2020/12/31 16:31:46;;;;;;;;;;;;;;;;;;5138294;27;860;-68
2020/12/31 16:34:11;;;;;;;;;;;;;;;;;;5138385;27;1305;-69
2020/12/31 16:36:36;;;;;;;;;;;;;;;;;;5137931;27;918;-68
2020/12/31 16:39:02;;;;;;;;;;;;;;;;;;5137187;27;1305;-68
2020/12/31 16:41:27;;;;;;;;;;;;;;;;;;5136810;27;1218;-68
2020/12/31 16:43:53;;;;;;;;;;;;;;;;;;5138163;27;784;-68
2020/12/31 16:46:19;;;;;;;;;;;;;;;;;;5138033;27;1966;-68
2020/12/31 16:48:44;;;;;;;;;;;;;;;;;;5136874;27;1304;-68
2020/12/31 16:51:10;;;;;;;;;;;;;;;;;;5137972;27;769;-68
2020/12/31 16:53:35;;;;;;;;;;;;;;;;;;5136699;27;895;-69
2020/12/31 16:56:00;;;;;;;;;;;;;;;;;;5137746;27;1313;-68
2020/12/31 16:58:26;;;;;;;;;;;;;;;;;;5138112;27;816;-68
2020/12/31 17:00:52;;;;;;;;;;;;;;;;;;5136528;27;924;-68
2020/12/31 17:03:17;;;;;;;;;;;;;;;;;;5136705;27;1318;-68